Live aus Altenrhein
LIVE
LSZR 261420Z 26007KT 210V290 9999 FEW030 BKN050 17/12 Q1013 NOSIG RMK K

People´s Info Center:

Öffnungszeiten Mo-Fr, 8-18 Uhr

 

info@peoples.ch

 
Aus Österreich:

T: +43 (0)5572 203 610

 

Aus CH / LI / DE:

T: +41 (0)71 858 51 60

 

Tarmac-Beizli

Direkt am Vorfeld des Flughafen Altenrhein

 

Bei Bratwurst und feinen Drinks direkt auf dem Flughafen-Vorfeld dem Flugbetrieb zuschauen. Einzigartig in der Schweiz!


Das erste Tarmac-Beizli, direkt auf dem Vorfeld in Altenrhein, öffnet über die Sommermonate ihre Türen. Lassen Sie den Abend in ungewöhnlicher Umbegung, neben dem täglichen Fluggeschehen ausklingen. Das Beizli bringt Einheimische und Auswärtige, Abholer und Fluggäste, Piloten und Mitarbeiter zusammen - wir freuen uns auf Sie!

 

Öffnungszeiten

Von Juni - September 2017, Montag bis Freitag von 18.30 - 21.30 Uhr bei guter Witterung.

 

Speisen/Getränke

Geniessen Sie feine Grillspezialitäten mit verschiedenen Salaten und diversen Getränken.

 

Kontakt

Bei Fragen wenden Sie sich bitte direkt an das Restaurant Cockpit unter +41 71 858 51 69.